sensor_id;sensor_type;location;lat;lon;timestamp;pressure;altitude;pressure_sealevel;temperature;humidity
19676;BME280;39539;52.202;9.876;2023-03-08T00:01:25;99138.41;;;-0.18;100.00
19676;BME280;39539;52.202;9.876;2023-03-08T00:03:54;99160.41;;;-0.12;100.00
19676;BME280;39539;52.202;9.876;2023-03-08T00:06:21;99159.88;;;-0.08;100.00
19676;BME280;39539;52.202;9.876;2023-03-08T00:08:46;99174.91;;;-0.10;100.00
19676;BME280;39539;52.202;9.876;2023-03-08T00:11:12;99177.16;;;-0.07;100.00
19676;BME280;39539;52.202;9.876;2023-03-08T00:13:38;99172.88;;;0.01;100.00
19676;BME280;39539;52.202;9.876;2023-03-08T00:16:05;99190.38;;;0.15;100.00
19676;BME280;39539;52.202;9.876;2023-03-08T00:18:33;99187.59;;;0.16;100.00
19676;BME280;39539;52.202;9.876;2023-03-08T00:21:10;99182.84;;;0.20;100.00
19676;BME280;39539;52.202;9.876;2023-03-08T00:23:36;99184.81;;;0.18;100.00
19676;BME280;39539;52.202;9.876;2023-03-08T00:26:01;99184.47;;;0.21;100.00
19676;BME280;39539;52.202;9.876;2023-03-08T00:28:27;99195.81;;;0.28;100.00
19676;BME280;39539;52.202;9.876;2023-03-08T00:31:02;99189.31;;;0.24;100.00
19676;BME280;39539;52.202;9.876;2023-03-08T00:33:28;99198.84;;;0.17;100.00
19676;BME280;39539;52.202;9.876;2023-03-08T00:36:06;99198.94;;;0.09;100.00
19676;BME280;39539;52.202;9.876;2023-03-08T00:38:34;99195.03;;;0.05;100.00
19676;BME280;39539;52.202;9.876;2023-03-08T00:40:59;99193.88;;;0.07;100.00
19676;BME280;39539;52.202;9.876;2023-03-08T00:43:26;99196.19;;;0.02;100.00
19676;BME280;39539;52.202;9.876;2023-03-08T00:45:52;99191.88;;;-0.06;100.00
19676;BME280;39539;52.202;9.876;2023-03-08T00:48:17;99189.94;;;-0.12;100.00
19676;BME280;39539;52.202;9.876;2023-03-08T00:50:43;99194.59;;;-0.22;100.00
19676;BME280;39539;52.202;9.876;2023-03-08T00:53:08;99199.31;;;-0.26;100.00
19676;BME280;39539;52.202;9.876;2023-03-08T00:55:34;99192.38;;;-0.33;100.00
19676;BME280;39539;52.202;9.876;2023-03-08T00:57:59;99181.69;;;-0.47;100.00
19676;BME280;39539;52.202;9.876;2023-03-08T01:00:25;99180.97;;;-0.40;100.00
19676;BME280;39539;52.202;9.876;2023-03-08T01:02:50;99188.81;;;-0.40;100.00
19676;BME280;39539;52.202;9.876;2023-03-08T01:05:16;99199.09;;;-0.39;100.00
19676;BME280;39539;52.202;9.876;2023-03-08T01:07:41;99200.25;;;-0.41;100.00
19676;BME280;39539;52.202;9.876;2023-03-08T01:10:07;99202.22;;;-0.43;100.00
19676;BME280;39539;52.202;9.876;2023-03-08T01:12:33;99195.50;;;-0.38;100.00
19676;BME280;39539;52.202;9.876;2023-03-08T01:15:00;99198.41;;;-0.33;100.00
19676;BME280;39539;52.202;9.876;2023-03-08T01:17:26;99192.03;;;-0.30;100.00
19676;BME280;39539;52.202;9.876;2023-03-08T01:19:51;99187.22;;;-0.18;100.00
19676;BME280;39539;52.202;9.876;2023-03-08T01:22:16;99178.91;;;-0.22;100.00
19676;BME280;39539;52.202;9.876;2023-03-08T01:24:46;99192.03;;;-0.07;100.00
19676;BME280;39539;52.202;9.876;2023-03-08T01:27:11;99183.38;;;-0.08;100.00
19676;BME280;39539;52.202;9.876;2023-03-08T01:29:37;99180.53;;;0.02;100.00
19676;BME280;39539;52.202;9.876;2023-03-08T01:32:02;99187.50;;;0.10;100.00
19676;BME280;39539;52.202;9.876;2023-03-08T01:34:27;99180.00;;;0.07;100.00
19676;BME280;39539;52.202;9.876;2023-03-08T01:36:53;99177.03;;;0.10;100.00
19676;BME280;39539;52.202;9.876;2023-03-08T01:39:18;99173.72;;;0.16;100.00
19676;BME280;39539;52.202;9.876;2023-03-08T01:41:44;99169.13;;;0.18;100.00
19676;BME280;39539;52.202;9.876;2023-03-08T01:44:15;99165.53;;;0.19;100.00
19676;BME280;39539;52.202;9.876;2023-03-08T01:46:41;99148.00;;;0.05;100.00
19676;BME280;39539;52.202;9.876;2023-03-08T01:49:19;99166.06;;;0.14;100.00
19676;BME280;39539;52.202;9.876;2023-03-08T01:54:37;99154.53;;;0.09;100.00
19676;BME280;39539;52.202;9.876;2023-03-08T01:57:17;99160.66;;;0.16;100.00
19676;BME280;39539;52.202;9.876;2023-03-08T01:59:45;99151.28;;;0.07;100.00
19676;BME280;39539;52.202;9.876;2023-03-08T02:02:12;99157.31;;;0.07;100.00
19676;BME280;39539;52.202;9.876;2023-03-08T02:04:38;99164.44;;;0.13;100.00
19676;BME280;39539;52.202;9.876;2023-03-08T02:07:04;99161.00;;;0.13;100.00
19676;BME280;39539;52.202;9.876;2023-03-08T02:09:29;99154.78;;;0.14;100.00
19676;BME280;39539;52.202;9.876;2023-03-08T02:11:58;99149.03;;;0.18;100.00
19676;BME280;39539;52.202;9.876;2023-03-08T02:14:25;99145.78;;;0.16;100.00
19676;BME280;39539;52.202;9.876;2023-03-08T02:16:51;99130.97;;;-0.06;100.00
19676;BME280;39539;52.202;9.876;2023-03-08T02:19:22;99140.25;;;-0.04;100.00
19676;BME280;39539;52.202;9.876;2023-03-08T02:21:51;99143.28;;;-0.15;100.00
19676;BME280;39539;52.202;9.876;2023-03-08T02:24:22;99148.69;;;-0.16;100.00
19676;BME280;39539;52.202;9.876;2023-03-08T02:26:48;99137.84;;;-0.28;100.00
19676;BME280;39539;52.202;9.876;2023-03-08T02:29:15;99130.19;;;-0.30;100.00
19676;BME280;39539;52.202;9.876;2023-03-08T02:31:40;99141.47;;;-0.37;100.00
19676;BME280;39539;52.202;9.876;2023-03-08T02:34:06;99124.25;;;-0.47;100.00
19676;BME280;39539;52.202;9.876;2023-03-08T02:36:31;99136.91;;;-0.35;100.00
19676;BME280;39539;52.202;9.876;2023-03-08T02:38:56;99132.50;;;-0.35;100.00
19676;BME280;39539;52.202;9.876;2023-03-08T02:41:22;99138.94;;;-0.22;100.00
19676;BME280;39539;52.202;9.876;2023-03-08T02:43:47;99132.63;;;-0.28;100.00
19676;BME280;39539;52.202;9.876;2023-03-08T02:46:13;99117.94;;;-0.29;100.00
19676;BME280;39539;52.202;9.876;2023-03-08T02:48:38;99128.16;;;-0.19;100.00
19676;BME280;39539;52.202;9.876;2023-03-08T02:51:04;99131.56;;;-0.19;100.00
19676;BME280;39539;52.202;9.876;2023-03-08T02:53:29;99119.28;;;-0.33;100.00
19676;BME280;39539;52.202;9.876;2023-03-08T02:55:54;99111.97;;;-0.38;100.00
19676;BME280;39539;52.202;9.876;2023-03-08T02:58:20;99129.84;;;-0.27;100.00
19676;BME280;39539;52.202;9.876;2023-03-08T03:00:45;99112.22;;;-0.48;100.00
19676;BME280;39539;52.202;9.876;2023-03-08T03:03:10;99117.44;;;-0.48;100.00
19676;BME280;39539;52.202;9.876;2023-03-08T03:05:40;99128.84;;;-0.49;100.00
19676;BME280;39539;52.202;9.876;2023-03-08T03:08:07;99122.34;;;-0.53;100.00
19676;BME280;39539;52.202;9.876;2023-03-08T03:10:34;99133.09;;;-0.48;100.00
19676;BME280;39539;52.202;9.876;2023-03-08T03:12:59;99106.63;;;-0.68;100.00
19676;BME280;39539;52.202;9.876;2023-03-08T03:15:25;99122.75;;;-0.64;100.00
19676;BME280;39539;52.202;9.876;2023-03-08T03:17:50;99126.22;;;-0.72;100.00
19676;BME280;39539;52.202;9.876;2023-03-08T03:20:16;99122.19;;;-0.82;100.00
19676;BME280;39539;52.202;9.876;2023-03-08T03:22:41;99131.31;;;-0.78;100.00
19676;BME280;39539;52.202;9.876;2023-03-08T03:25:07;99118.53;;;-0.96;100.00
19676;BME280;39539;52.202;9.876;2023-03-08T03:27:33;99131.69;;;-0.89;100.00
19676;BME280;39539;52.202;9.876;2023-03-08T03:29:58;99132.34;;;-0.87;100.00
19676;BME280;39539;52.202;9.876;2023-03-08T03:32:23;99135.25;;;-0.82;100.00
19676;BME280;39539;52.202;9.876;2023-03-08T03:34:49;99135.38;;;-0.76;100.00
19676;BME280;39539;52.202;9.876;2023-03-08T03:37:14;99141.41;;;-0.75;100.00
19676;BME280;39539;52.202;9.876;2023-03-08T03:39:39;99143.63;;;-0.64;100.00
19676;BME280;39539;52.202;9.876;2023-03-08T03:42:06;99132.25;;;-0.71;100.00
19676;BME280;39539;52.202;9.876;2023-03-08T03:44:31;99133.59;;;-0.75;100.00
19676;BME280;39539;52.202;9.876;2023-03-08T03:46:57;99141.81;;;-0.63;100.00
19676;BME280;39539;52.202;9.876;2023-03-08T03:49:22;99149.66;;;-0.63;100.00
19676;BME280;39539;52.202;9.876;2023-03-08T03:51:47;99140.72;;;-0.69;100.00
19676;BME280;39539;52.202;9.876;2023-03-08T03:54:13;99140.41;;;-0.74;100.00
19676;BME280;39539;52.202;9.876;2023-03-08T03:56:38;99147.28;;;-0.73;100.00
19676;BME280;39539;52.202;9.876;2023-03-08T03:59:04;99136.88;;;-0.81;100.00
19676;BME280;39539;52.202;9.876;2023-03-08T04:01:30;99128.91;;;-0.88;100.00
19676;BME280;39539;52.202;9.876;2023-03-08T04:03:56;99130.25;;;-0.92;100.00
19676;BME280;39539;52.202;9.876;2023-03-08T04:06:29;99130.94;;;-0.98;100.00
19676;BME280;39539;52.202;9.876;2023-03-08T04:08:57;99136.63;;;-0.95;100.00
19676;BME280;39539;52.202;9.876;2023-03-08T04:11:25;99143.28;;;-0.92;100.00
19676;BME280;39539;52.202;9.876;2023-03-08T04:13:52;99142.50;;;-1.01;100.00
19676;BME280;39539;52.202;9.876;2023-03-08T04:16:23;99132.94;;;-1.08;100.00
19676;BME280;39539;52.202;9.876;2023-03-08T04:18:51;99128.81;;;-1.03;100.00
19676;BME280;39539;52.202;9.876;2023-03-08T04:21:18;99152.25;;;-0.95;100.00
19676;BME280;39539;52.202;9.876;2023-03-08T04:23:43;99134.03;;;-1.03;100.00
19676;BME280;39539;52.202;9.876;2023-03-08T04:26:08;99136.28;;;-0.92;100.00
19676;BME280;39539;52.202;9.876;2023-03-08T04:28:34;99127.97;;;-0.95;100.00
19676;BME280;39539;52.202;9.876;2023-03-08T04:31:16;99128.44;;;-0.92;100.00
19676;BME280;39539;52.202;9.876;2023-03-08T04:33:42;99129.44;;;-0.93;100.00
19676;BME280;39539;52.202;9.876;2023-03-08T04:36:08;99125.19;;;-0.94;100.00
19676;BME280;39539;52.202;9.876;2023-03-08T04:38:33;99141.44;;;-0.83;100.00
19676;BME280;39539;52.202;9.876;2023-03-08T04:40:59;99140.63;;;-0.84;100.00
19676;BME280;39539;52.202;9.876;2023-03-08T04:46:14;99141.16;;;-0.88;100.00
19676;BME280;39539;52.202;9.876;2023-03-08T04:48:40;99119.03;;;-1.01;100.00
19676;BME280;39539;52.202;9.876;2023-03-08T04:51:06;99131.69;;;-0.89;100.00
19676;BME280;39539;52.202;9.876;2023-03-08T04:53:33;99135.94;;;-0.88;100.00
19676;BME280;39539;52.202;9.876;2023-03-08T04:55:59;99127.47;;;-0.91;100.00
19676;BME280;39539;52.202;9.876;2023-03-08T04:58:26;99130.91;;;-0.90;100.00
19676;BME280;39539;52.202;9.876;2023-03-08T05:00:52;99130.25;;;-0.92;100.00
19676;BME280;39539;52.202;9.876;2023-03-08T05:03:17;99128.47;;;-1.00;100.00
19676;BME280;39539;52.202;9.876;2023-03-08T05:05:51;99124.06;;;-0.99;100.00
19676;BME280;39539;52.202;9.876;2023-03-08T05:08:17;99116.94;;;-1.05;100.00
19676;BME280;39539;52.202;9.876;2023-03-08T05:10:54;99107.06;;;-1.18;100.00
19676;BME280;39539;52.202;9.876;2023-03-08T05:13:22;99121.03;;;-1.11;100.00
19676;BME280;39539;52.202;9.876;2023-03-08T05:15:47;99120.41;;;-1.13;100.00
19676;BME280;39539;52.202;9.876;2023-03-08T05:18:13;99118.28;;;-1.09;100.00
19676;BME280;39539;52.202;9.876;2023-03-08T05:20:38;99106.09;;;-1.17;100.00
19676;BME280;39539;52.202;9.876;2023-03-08T05:23:04;99119.44;;;-1.12;100.00
19676;BME280;39539;52.202;9.876;2023-03-08T05:25:29;99105.75;;;-1.14;100.00
19676;BME280;39539;52.202;9.876;2023-03-08T05:27:55;99111.56;;;-1.04;100.00
19676;BME280;39539;52.202;9.876;2023-03-08T05:30:21;99105.34;;;-1.03;100.00
19676;BME280;39539;52.202;9.876;2023-03-08T05:32:46;99102.75;;;-1.03;100.00
19676;BME280;39539;52.202;9.876;2023-03-08T05:35:11;99082.59;;;-1.09;100.00
19676;BME280;39539;52.202;9.876;2023-03-08T05:37:37;99083.84;;;-1.05;100.00
19676;BME280;39539;52.202;9.876;2023-03-08T05:40:03;99090.38;;;-1.01;100.00
19676;BME280;39539;52.202;9.876;2023-03-08T05:42:31;99086.84;;;-1.16;100.00
19676;BME280;39539;52.202;9.876;2023-03-08T05:44:56;99089.28;;;-1.15;100.00
19676;BME280;39539;52.202;9.876;2023-03-08T05:47:22;99079.03;;;-1.16;100.00
19676;BME280;39539;52.202;9.876;2023-03-08T05:49:47;99087.88;;;-1.25;100.00
19676;BME280;39539;52.202;9.876;2023-03-08T05:52:12;99088.84;;;-1.26;100.00
19676;BME280;39539;52.202;9.876;2023-03-08T05:54:38;99081.41;;;-1.38;100.00
19676;BME280;39539;52.202;9.876;2023-03-08T05:57:04;99085.78;;;-1.30;100.00
19676;BME280;39539;52.202;9.876;2023-03-08T05:59:29;99103.16;;;-1.22;100.00
19676;BME280;39539;52.202;9.876;2023-03-08T06:01:55;99103.00;;;-1.21;100.00
19676;BME280;39539;52.202;9.876;2023-03-08T06:04:21;99092.53;;;-1.13;100.00
19676;BME280;39539;52.202;9.876;2023-03-08T06:06:46;99070.28;;;-1.23;100.00
19676;BME280;39539;52.202;9.876;2023-03-08T06:09:12;99091.22;;;-1.08;100.00
19676;BME280;39539;52.202;9.876;2023-03-08T06:11:37;99095.28;;;-1.06;100.00
19676;BME280;39539;52.202;9.876;2023-03-08T06:14:02;99103.72;;;-0.96;100.00
19676;BME280;39539;52.202;9.876;2023-03-08T06:16:28;99087.44;;;-1.06;100.00
19676;BME280;39539;52.202;9.876;2023-03-08T06:18:53;99098.50;;;-0.96;100.00
19676;BME280;39539;52.202;9.876;2023-03-08T06:21:19;99093.63;;;-0.99;100.00
19676;BME280;39539;52.202;9.876;2023-03-08T06:23:45;99092.13;;;-0.93;100.00
19676;BME280;39539;52.202;9.876;2023-03-08T06:26:12;99087.47;;;-0.83;100.00
19676;BME280;39539;52.202;9.876;2023-03-08T06:28:38;99097.38;;;-0.70;100.00
19676;BME280;39539;52.202;9.876;2023-03-08T06:31:05;99091.19;;;-0.77;100.00
19676;BME280;39539;52.202;9.876;2023-03-08T06:33:32;99092.75;;;-0.68;100.00
19676;BME280;39539;52.202;9.876;2023-03-08T06:38:25;99081.72;;;-0.47;100.00
19676;BME280;39539;52.202;9.876;2023-03-08T06:40:51;99080.72;;;-0.46;100.00
19676;BME280;39539;52.202;9.876;2023-03-08T06:43:16;99097.00;;;-0.21;100.00
19676;BME280;39539;52.202;9.876;2023-03-08T06:45:43;99080.63;;;-0.15;100.00
19676;BME280;39539;52.202;9.876;2023-03-08T06:48:08;99086.13;;;0.05;100.00
19676;BME280;39539;52.202;9.876;2023-03-08T06:50:37;99091.47;;;0.12;100.00
19676;BME280;39539;52.202;9.876;2023-03-08T06:53:02;99086.78;;;0.22;100.00
19676;BME280;39539;52.202;9.876;2023-03-08T06:55:27;99079.59;;;0.24;100.00
19676;BME280;39539;52.202;9.876;2023-03-08T06:57:53;99091.41;;;0.50;100.00
19676;BME280;39539;52.202;9.876;2023-03-08T07:00:21;99070.03;;;0.61;100.00
19676;BME280;39539;52.202;9.876;2023-03-08T07:02:47;99077.25;;;0.74;100.00
19676;BME280;39539;52.202;9.876;2023-03-08T07:05:14;99080.19;;;0.85;100.00
19676;BME280;39539;52.202;9.876;2023-03-08T07:07:41;99079.53;;;0.98;100.00
19676;BME280;39539;52.202;9.876;2023-03-08T07:10:07;99077.72;;;0.99;100.00
19676;BME280;39539;52.202;9.876;2023-03-08T07:12:35;99062.00;;;0.99;100.00
19676;BME280;39539;52.202;9.876;2023-03-08T07:15:06;99071.44;;;1.15;100.00
19676;BME280;39539;52.202;9.876;2023-03-08T07:17:32;99068.28;;;1.19;100.00
19676;BME280;39539;52.202;9.876;2023-03-08T07:19:59;99065.03;;;1.17;100.00
19676;BME280;39539;52.202;9.876;2023-03-08T07:22:24;99050.94;;;1.18;100.00
19676;BME280;39539;52.202;9.876;2023-03-08T07:24:50;99038.44;;;1.14;100.00
19676;BME280;39539;52.202;9.876;2023-03-08T07:27:16;99042.94;;;1.20;100.00
19676;BME280;39539;52.202;9.876;2023-03-08T07:29:51;99043.22;;;1.31;100.00
19676;BME280;39539;52.202;9.876;2023-03-08T07:32:18;99031.34;;;1.29;100.00
19676;BME280;39539;52.202;9.876;2023-03-08T07:34:45;99024.66;;;1.26;100.00
19676;BME280;39539;52.202;9.876;2023-03-08T07:37:16;99033.06;;;1.43;100.00
19676;BME280;39539;52.202;9.876;2023-03-08T07:39:41;99028.25;;;1.47;100.00
19676;BME280;39539;52.202;9.876;2023-03-08T07:42:09;99022.63;;;1.71;100.00
19676;BME280;39539;52.202;9.876;2023-03-08T07:44:34;99023.72;;;1.84;100.00
19676;BME280;39539;52.202;9.876;2023-03-08T07:47:02;99019.88;;;2.14;100.00
19676;BME280;39539;52.202;9.876;2023-03-08T07:49:29;99015.94;;;2.32;100.00
19676;BME280;39539;52.202;9.876;2023-03-08T07:51:54;99016.03;;;2.52;98.39
19676;BME280;39539;52.202;9.876;2023-03-08T07:54:20;99005.53;;;2.52;96.99
19676;BME280;39539;52.202;9.876;2023-03-08T07:56:45;99022.34;;;2.64;97.30
19676;BME280;39539;52.202;9.876;2023-03-08T07:59:14;99016.63;;;2.47;97.13
19676;BME280;39539;52.202;9.876;2023-03-08T08:01:39;99007.75;;;2.48;98.04
19676;BME280;39539;52.202;9.876;2023-03-08T08:04:04;98999.44;;;2.38;97.77
19676;BME280;39539;52.202;9.876;2023-03-08T08:06:34;99012.44;;;2.59;97.62
19676;BME280;39539;52.202;9.876;2023-03-08T08:09:01;98993.03;;;2.47;96.11
19676;BME280;39539;52.202;9.876;2023-03-08T08:11:27;99000.91;;;2.60;94.98
19676;BME280;39539;52.202;9.876;2023-03-08T08:13:52;98964.56;;;2.44;94.84
19676;BME280;39539;52.202;9.876;2023-03-08T08:16:18;98975.47;;;2.41;94.79
19676;BME280;39539;52.202;9.876;2023-03-08T08:18:44;98978.00;;;2.28;95.92
19676;BME280;39539;52.202;9.876;2023-03-08T08:21:11;98993.44;;;2.51;96.02
19676;BME280;39539;52.202;9.876;2023-03-08T08:23:38;99001.13;;;2.52;96.09
19676;BME280;39539;52.202;9.876;2023-03-08T08:26:07;98990.19;;;2.42;96.97
19676;BME280;39539;52.202;9.876;2023-03-08T08:28:35;98979.91;;;2.47;96.86
19676;BME280;39539;52.202;9.876;2023-03-08T08:31:08;98979.13;;;2.53;96.11
19676;BME280;39539;52.202;9.876;2023-03-08T08:33:34;98969.03;;;2.50;95.23
19676;BME280;39539;52.202;9.876;2023-03-08T08:36:03;98972.47;;;2.51;95.43
19676;BME280;39539;52.202;9.876;2023-03-08T08:38:29;98973.03;;;2.46;95.03
19676;BME280;39539;52.202;9.876;2023-03-08T08:41:01;98959.53;;;2.49;94.80
19676;BME280;39539;52.202;9.876;2023-03-08T08:43:27;98960.78;;;2.53;96.00
19676;BME280;39539;52.202;9.876;2023-03-08T08:45:55;98957.78;;;2.69;95.83
19676;BME280;39539;52.202;9.876;2023-03-08T08:48:23;98944.94;;;2.95;95.15
19676;BME280;39539;52.202;9.876;2023-03-08T08:50:49;98956.03;;;3.17;94.30
19676;BME280;39539;52.202;9.876;2023-03-08T08:53:16;98959.25;;;3.58;93.50
19676;BME280;39539;52.202;9.876;2023-03-08T08:55:42;98960.81;;;3.93;89.81
19676;BME280;39539;52.202;9.876;2023-03-08T08:58:07;98952.88;;;4.19;87.76
19676;BME280;39539;52.202;9.876;2023-03-08T09:00:34;98949.59;;;4.31;87.36
19676;BME280;39539;52.202;9.876;2023-03-08T09:03:00;98942.75;;;4.23;85.07
19676;BME280;39539;52.202;9.876;2023-03-08T09:05:26;98949.84;;;4.16;86.05
19676;BME280;39539;52.202;9.876;2023-03-08T09:07:53;98939.06;;;4.31;86.73
19676;BME280;39539;52.202;9.876;2023-03-08T09:10:20;98928.78;;;4.16;86.94
19676;BME280;39539;52.202;9.876;2023-03-08T09:12:46;98924.75;;;4.20;86.58
19676;BME280;39539;52.202;9.876;2023-03-08T09:15:11;98920.63;;;4.37;87.04
19676;BME280;39539;52.202;9.876;2023-03-08T09:17:37;98914.38;;;4.32;87.57
19676;BME280;39539;52.202;9.876;2023-03-08T09:20:04;98903.91;;;4.18;86.92
19676;BME280;39539;52.202;9.876;2023-03-08T09:22:32;98906.34;;;4.20;86.72
19676;BME280;39539;52.202;9.876;2023-03-08T09:24:57;98888.03;;;3.93;86.43
19676;BME280;39539;52.202;9.876;2023-03-08T09:27:22;98891.44;;;4.00;88.01
19676;BME280;39539;52.202;9.876;2023-03-08T09:29:48;98884.72;;;4.18;88.33
19676;BME280;39539;52.202;9.876;2023-03-08T09:32:13;98877.41;;;4.20;88.96
19676;BME280;39539;52.202;9.876;2023-03-08T09:34:39;98872.72;;;4.28;87.47
19676;BME280;39539;52.202;9.876;2023-03-08T09:37:04;98875.25;;;4.48;88.13
19676;BME280;39539;52.202;9.876;2023-03-08T09:39:33;98859.41;;;4.55;86.05
19676;BME280;39539;52.202;9.876;2023-03-08T09:42:01;98859.38;;;4.62;85.39
19676;BME280;39539;52.202;9.876;2023-03-08T09:50:40;98844.16;;;4.64;86.97
19676;BME280;39539;52.202;9.876;2023-03-08T09:56:02;98827.63;;;4.57;87.36
19676;BME280;39539;52.202;9.876;2023-03-08T09:58:50;98809.38;;;4.62;87.03
19676;BME280;39539;52.202;9.876;2023-03-08T10:09:21;98796.97;;;4.69;82.90
19676;BME280;39539;52.202;9.876;2023-03-08T10:15:30;98785.38;;;4.52;87.06
19676;BME280;39539;52.202;9.876;2023-03-08T10:21:05;98782.75;;;4.77;87.69
19676;BME280;39539;52.202;9.876;2023-03-08T10:23:34;98772.84;;;4.97;85.89
19676;BME280;39539;52.202;9.876;2023-03-08T10:26:27;98777.03;;;5.23;85.93
19676;BME280;39539;52.202;9.876;2023-03-08T10:28:53;98767.13;;;5.00;84.52
19676;BME280;39539;52.202;9.876;2023-03-08T10:31:27;98741.38;;;4.84;86.05
19676;BME280;39539;52.202;9.876;2023-03-08T10:34:17;98737.13;;;4.64;85.79
19676;BME280;39539;52.202;9.876;2023-03-08T10:37:06;98751.38;;;5.18;83.60
19676;BME280;39539;52.202;9.876;2023-03-08T10:39:34;98744.53;;;5.11;84.77
19676;BME280;39539;52.202;9.876;2023-03-08T10:42:06;98742.78;;;5.05;85.31
19676;BME280;39539;52.202;9.876;2023-03-08T10:44:42;98745.94;;;5.13;82.61
19676;BME280;39539;52.202;9.876;2023-03-08T10:47:21;98733.25;;;5.04;83.41
19676;BME280;39539;52.202;9.876;2023-03-08T10:50:21;98733.81;;;4.69;84.58
19676;BME280;39539;52.202;9.876;2023-03-08T10:52:48;98709.25;;;4.57;83.96
19676;BME280;39539;52.202;9.876;2023-03-08T10:55:27;98717.66;;;4.65;84.87
19676;BME280;39539;52.202;9.876;2023-03-08T10:57:58;98714.25;;;4.83;86.68
19676;BME280;39539;52.202;9.876;2023-03-08T11:00:37;98716.91;;;5.02;87.52
19676;BME280;39539;52.202;9.876;2023-03-08T11:03:16;98718.06;;;5.06;83.42
19676;BME280;39539;52.202;9.876;2023-03-08T11:06:03;98710.72;;;4.71;84.76
19676;BME280;39539;52.202;9.876;2023-03-08T11:08:35;98701.66;;;4.67;88.91
19676;BME280;39539;52.202;9.876;2023-03-08T11:11:07;98708.00;;;4.59;86.61
19676;BME280;39539;52.202;9.876;2023-03-08T11:13:36;98703.81;;;4.52;89.40
19676;BME280;39539;52.202;9.876;2023-03-08T11:22:15;98716.91;;;5.02;83.88
19676;BME280;39539;52.202;9.876;2023-03-08T11:25:10;98711.91;;;5.12;85.16
19676;BME280;39539;52.202;9.876;2023-03-08T11:33:22;98714.47;;;5.00;82.83
19676;BME280;39539;52.202;9.876;2023-03-08T11:38:32;98710.09;;;5.31;79.03
19676;BME280;39539;52.202;9.876;2023-03-08T11:49:48;98693.91;;;4.54;82.43
19676;BME280;39539;52.202;9.876;2023-03-08T11:52:26;98694.44;;;4.37;83.53
19676;BME280;39539;52.202;9.876;2023-03-08T11:57:24;98691.47;;;4.27;87.65
19676;BME280;39539;52.202;9.876;2023-03-08T12:00:11;98691.34;;;4.22;85.45
19676;BME280;39539;52.202;9.876;2023-03-08T12:02:42;98694.38;;;4.44;82.54
19676;BME280;39539;52.202;9.876;2023-03-08T12:07:56;98685.41;;;4.01;84.93
19676;BME280;39539;52.202;9.876;2023-03-08T12:10:27;98670.66;;;3.69;86.00
19676;BME280;39539;52.202;9.876;2023-03-08T12:18:54;98692.78;;;3.86;91.42
19676;BME280;39539;52.202;9.876;2023-03-08T12:26:25;98686.59;;;4.05;85.45
19676;BME280;39539;52.202;9.876;2023-03-08T12:28:56;98677.09;;;4.04;84.46
19676;BME280;39539;52.202;9.876;2023-03-08T12:33:51;98676.19;;;4.17;86.55
19676;BME280;39539;52.202;9.876;2023-03-08T12:36:19;98670.41;;;4.09;89.02
19676;BME280;39539;52.202;9.876;2023-03-08T12:38:48;98653.72;;;3.65;90.41
19676;BME280;39539;52.202;9.876;2023-03-08T12:41:26;98649.03;;;3.35;93.83
19676;BME280;39539;52.202;9.876;2023-03-08T12:46:24;98645.06;;;2.67;100.00
19676;BME280;39539;52.202;9.876;2023-03-08T12:48:50;98662.16;;;2.77;100.00
19676;BME280;39539;52.202;9.876;2023-03-08T12:51:22;98647.69;;;2.67;97.71
19676;BME280;39539;52.202;9.876;2023-03-08T12:56:47;98664.59;;;2.72;96.07
19676;BME280;39539;52.202;9.876;2023-03-08T13:04:38;98653.19;;;2.19;99.64
19676;BME280;39539;52.202;9.876;2023-03-08T13:12:27;98650.59;;;1.93;100.00
19676;BME280;39539;52.202;9.876;2023-03-08T13:17:48;98659.84;;;1.95;100.00
19676;BME280;39539;52.202;9.876;2023-03-08T13:20:24;98653.41;;;1.85;100.00
19676;BME280;39539;52.202;9.876;2023-03-08T13:28:35;98643.69;;;1.59;100.00
19676;BME280;39539;52.202;9.876;2023-03-08T13:31:12;98650.31;;;1.61;100.00
19676;BME280;39539;52.202;9.876;2023-03-08T13:33:41;98654.97;;;1.66;100.00
19676;BME280;39539;52.202;9.876;2023-03-08T13:36:27;98645.28;;;1.60;100.00
19676;BME280;39539;52.202;9.876;2023-03-08T13:39:05;98649.91;;;1.57;100.00
19676;BME280;39539;52.202;9.876;2023-03-08T13:44:03;98646.94;;;1.67;100.00
19676;BME280;39539;52.202;9.876;2023-03-08T13:46:29;98665.44;;;1.72;100.00
19676;BME280;39539;52.202;9.876;2023-03-08T13:48:54;98656.16;;;1.63;100.00
19676;BME280;39539;52.202;9.876;2023-03-08T13:51:24;98662.25;;;1.70;100.00
19676;BME280;39539;52.202;9.876;2023-03-08T13:53:50;98659.41;;;1.72;100.00
19676;BME280;39539;52.202;9.876;2023-03-08T13:56:25;98655.38;;;1.69;100.00
19676;BME280;39539;52.202;9.876;2023-03-08T13:58:52;98656.56;;;1.67;100.00
19676;BME280;39539;52.202;9.876;2023-03-08T14:01:22;98657.41;;;1.67;100.00
19676;BME280;39539;52.202;9.876;2023-03-08T14:03:49;98652.53;;;1.64;100.00
19676;BME280;39539;52.202;9.876;2023-03-08T14:06:26;98664.81;;;1.64;100.00
19676;BME280;39539;52.202;9.876;2023-03-08T14:08:56;98654.16;;;1.65;100.00
19676;BME280;39539;52.202;9.876;2023-03-08T14:11:29;98655.19;;;1.71;100.00
19676;BME280;39539;52.202;9.876;2023-03-08T14:13:56;98656.16;;;1.70;100.00
19676;BME280;39539;52.202;9.876;2023-03-08T14:16:29;98654.97;;;1.66;100.00
19676;BME280;39539;52.202;9.876;2023-03-08T14:19:15;98645.13;;;1.68;100.00
19676;BME280;39539;52.202;9.876;2023-03-08T14:24:35;98640.09;;;1.73;100.00
19676;BME280;39539;52.202;9.876;2023-03-08T14:29:40;98647.69;;;1.48;100.00
19676;BME280;39539;52.202;9.876;2023-03-08T14:39:39;98664.81;;;1.50;100.00
19676;BME280;39539;52.202;9.876;2023-03-08T14:42:19;98654.75;;;1.54;100.00
19676;BME280;39539;52.202;9.876;2023-03-08T14:44:58;98645.88;;;1.55;100.00
19676;BME280;39539;52.202;9.876;2023-03-08T14:52:35;98618.69;;;1.43;100.00
19676;BME280;39539;52.202;9.876;2023-03-08T14:55:02;98618.06;;;1.41;100.00
19676;BME280;39539;52.202;9.876;2023-03-08T14:57:28;98612.22;;;1.25;100.00
19676;BME280;39539;52.202;9.876;2023-03-08T15:00:11;98626.91;;;1.26;100.00
19676;BME280;39539;52.202;9.876;2023-03-08T15:02:39;98613.19;;;1.24;100.00
19676;BME280;39539;52.202;9.876;2023-03-08T15:05:14;98596.28;;;1.20;100.00